sensor_id;sensor_type;location;lat;lon;timestamp;P1;durP1;ratioP1;P2;durP2;ratioP2
66927;SDS011;59882;45.624;11.698;2022-09-21T00:00:36;4.72;;;1.13;;
66927;SDS011;59882;45.624;11.698;2022-09-21T00:03:02;4.70;;;1.53;;
66927;SDS011;59882;45.624;11.698;2022-09-21T00:05:28;5.78;;;1.15;;
66927;SDS011;59882;45.624;11.698;2022-09-21T00:07:54;6.68;;;1.40;;
66927;SDS011;59882;45.624;11.698;2022-09-21T00:10:20;6.03;;;1.23;;
66927;SDS011;59882;45.624;11.698;2022-09-21T00:12:46;5.47;;;0.90;;
66927;SDS011;59882;45.624;11.698;2022-09-21T00:15:13;7.70;;;0.90;;
66927;SDS011;59882;45.624;11.698;2022-09-21T00:17:41;10.75;;;0.80;;
66927;SDS011;59882;45.624;11.698;2022-09-21T00:20:07;3.43;;;0.97;;
66927;SDS011;59882;45.624;11.698;2022-09-21T00:22:33;4.68;;;0.82;;
66927;SDS011;59882;45.624;11.698;2022-09-21T00:24:59;4.00;;;1.00;;
66927;SDS011;59882;45.624;11.698;2022-09-21T00:27:27;3.30;;;0.67;;
66927;SDS011;59882;45.624;11.698;2022-09-21T00:29:57;4.18;;;0.75;;
66927;SDS011;59882;45.624;11.698;2022-09-21T00:32:27;6.05;;;0.70;;
66927;SDS011;59882;45.624;11.698;2022-09-21T00:34:57;5.18;;;0.68;;
66927;SDS011;59882;45.624;11.698;2022-09-21T00:37:24;3.55;;;0.70;;
66927;SDS011;59882;45.624;11.698;2022-09-21T00:39:51;4.07;;;0.67;;
66927;SDS011;59882;45.624;11.698;2022-09-21T00:44:44;2.92;;;0.60;;
66927;SDS011;59882;45.624;11.698;2022-09-21T00:47:12;2.70;;;0.50;;
66927;SDS011;59882;45.624;11.698;2022-09-21T00:49:41;4.60;;;0.70;;
66927;SDS011;59882;45.624;11.698;2022-09-21T00:52:08;4.32;;;0.68;;
66927;SDS011;59882;45.624;11.698;2022-09-21T00:54:47;3.40;;;0.80;;
66927;SDS011;59882;45.624;11.698;2022-09-21T00:57:23;4.53;;;0.60;;
66927;SDS011;59882;45.624;11.698;2022-09-21T00:59:53;4.07;;;0.40;;
66927;SDS011;59882;45.624;11.698;2022-09-21T01:02:20;2.97;;;0.37;;
66927;SDS011;59882;45.624;11.698;2022-09-21T01:04:46;3.38;;;0.68;;
66927;SDS011;59882;45.624;11.698;2022-09-21T01:07:14;3.78;;;0.52;;
66927;SDS011;59882;45.624;11.698;2022-09-21T01:09:45;2.80;;;0.45;;
66927;SDS011;59882;45.624;11.698;2022-09-21T01:12:29;5.67;;;0.50;;
66927;SDS011;59882;45.624;11.698;2022-09-21T01:17:50;6.07;;;0.40;;
66927;SDS011;59882;45.624;11.698;2022-09-21T01:34:24;3.17;;;0.60;;
66927;SDS011;59882;45.624;11.698;2022-09-21T01:37:02;3.45;;;0.30;;
66927;SDS011;59882;45.624;11.698;2022-09-21T01:39:32;6.13;;;0.13;;
66927;SDS011;59882;45.624;11.698;2022-09-21T01:41:59;2.67;;;0.30;;
66927;SDS011;59882;45.624;11.698;2022-09-21T01:44:29;3.55;;;0.40;;
66927;SDS011;59882;45.624;11.698;2022-09-21T01:46:57;2.75;;;0.35;;
66927;SDS011;59882;45.624;11.698;2022-09-21T01:49:27;3.72;;;0.50;;
66927;SDS011;59882;45.624;11.698;2022-09-21T01:52:02;3.97;;;0.50;;
66927;SDS011;59882;45.624;11.698;2022-09-21T01:54:40;2.42;;;0.45;;
66927;SDS011;59882;45.624;11.698;2022-09-21T01:57:15;3.10;;;0.40;;
66927;SDS011;59882;45.624;11.698;2022-09-21T01:59:54;4.40;;;0.40;;
66927;SDS011;59882;45.624;11.698;2022-09-21T02:05:12;3.07;;;0.27;;
66927;SDS011;59882;45.624;11.698;2022-09-21T02:07:40;6.65;;;0.30;;
66927;SDS011;59882;45.624;11.698;2022-09-21T02:10:07;2.10;;;0.30;;
66927;SDS011;59882;45.624;11.698;2022-09-21T02:12:37;5.10;;;0.30;;
66927;SDS011;59882;45.624;11.698;2022-09-21T02:15:04;2.00;;;0.30;;
66927;SDS011;59882;45.624;11.698;2022-09-21T02:20:31;1.90;;;0.30;;
66927;SDS011;59882;45.624;11.698;2022-09-21T02:23:22;3.33;;;0.43;;
66927;SDS011;59882;45.624;11.698;2022-09-21T02:25:56;2.30;;;0.30;;
66927;SDS011;59882;45.624;11.698;2022-09-21T02:28:39;2.53;;;0.30;;
66927;SDS011;59882;45.624;11.698;2022-09-21T02:33:58;3.80;;;0.50;;
66927;SDS011;59882;45.624;11.698;2022-09-21T02:36:42;3.00;;;0.40;;
66927;SDS011;59882;45.624;11.698;2022-09-21T02:39:25;5.47;;;0.32;;
66927;SDS011;59882;45.624;11.698;2022-09-21T02:44:33;4.73;;;0.60;;
66927;SDS011;59882;45.624;11.698;2022-09-21T02:50:09;4.63;;;0.30;;
66927;SDS011;59882;45.624;11.698;2022-09-21T02:52:41;3.63;;;0.43;;
66927;SDS011;59882;45.624;11.698;2022-09-21T02:55:08;2.35;;;0.40;;
66927;SDS011;59882;45.624;11.698;2022-09-21T02:57:35;2.33;;;0.20;;
66927;SDS011;59882;45.624;11.698;2022-09-21T03:00:03;3.90;;;0.30;;
66927;SDS011;59882;45.624;11.698;2022-09-21T03:02:39;3.10;;;0.50;;
66927;SDS011;59882;45.624;11.698;2022-09-21T03:05:08;5.18;;;0.50;;
66927;SDS011;59882;45.624;11.698;2022-09-21T03:07:35;2.35;;;0.30;;
66927;SDS011;59882;45.624;11.698;2022-09-21T03:10:01;4.43;;;0.47;;
66927;SDS011;59882;45.624;11.698;2022-09-21T03:12:27;4.50;;;0.70;;
66927;SDS011;59882;45.624;11.698;2022-09-21T03:14:53;4.03;;;0.73;;
66927;SDS011;59882;45.624;11.698;2022-09-21T03:17:20;3.33;;;0.52;;
66927;SDS011;59882;45.624;11.698;2022-09-21T03:19:46;2.97;;;0.60;;
66927;SDS011;59882;45.624;11.698;2022-09-21T03:22:11;3.83;;;0.70;;
66927;SDS011;59882;45.624;11.698;2022-09-21T03:24:37;2.60;;;0.40;;
66927;SDS011;59882;45.624;11.698;2022-09-21T03:27:12;3.72;;;0.60;;
66927;SDS011;59882;45.624;11.698;2022-09-21T03:29:40;4.47;;;0.90;;
66927;SDS011;59882;45.624;11.698;2022-09-21T03:32:05;2.57;;;0.60;;
66927;SDS011;59882;45.624;11.698;2022-09-21T03:34:31;2.92;;;0.50;;
66927;SDS011;59882;45.624;11.698;2022-09-21T03:36:58;4.03;;;0.73;;
66927;SDS011;59882;45.624;11.698;2022-09-21T03:39:25;3.92;;;0.82;;
66927;SDS011;59882;45.624;11.698;2022-09-21T03:41:50;4.50;;;0.60;;
66927;SDS011;59882;45.624;11.698;2022-09-21T03:44:16;4.72;;;0.98;;
66927;SDS011;59882;45.624;11.698;2022-09-21T03:46:42;3.47;;;0.70;;
66927;SDS011;59882;45.624;11.698;2022-09-21T03:49:08;5.55;;;0.68;;
66927;SDS011;59882;45.624;11.698;2022-09-21T03:51:34;4.17;;;0.80;;
66927;SDS011;59882;45.624;11.698;2022-09-21T03:53:59;5.28;;;0.95;;
66927;SDS011;59882;45.624;11.698;2022-09-21T03:56:25;4.10;;;0.80;;
66927;SDS011;59882;45.624;11.698;2022-09-21T03:58:50;4.53;;;0.98;;
66927;SDS011;59882;45.624;11.698;2022-09-21T04:01:16;3.97;;;0.60;;
66927;SDS011;59882;45.624;11.698;2022-09-21T04:03:42;5.35;;;0.63;;
66927;SDS011;59882;45.624;11.698;2022-09-21T04:06:11;3.07;;;0.70;;
66927;SDS011;59882;45.624;11.698;2022-09-21T04:08:38;5.28;;;0.80;;
66927;SDS011;59882;45.624;11.698;2022-09-21T04:11:10;5.85;;;0.50;;
66927;SDS011;59882;45.624;11.698;2022-09-21T04:13:37;2.78;;;0.60;;
66927;SDS011;59882;45.624;11.698;2022-09-21T04:16:03;5.37;;;0.50;;
66927;SDS011;59882;45.624;11.698;2022-09-21T04:18:28;7.75;;;0.85;;
66927;SDS011;59882;45.624;11.698;2022-09-21T04:20:54;2.50;;;0.63;;
66927;SDS011;59882;45.624;11.698;2022-09-21T04:23:20;2.78;;;0.50;;
66927;SDS011;59882;45.624;11.698;2022-09-21T04:25:47;4.95;;;0.70;;
66927;SDS011;59882;45.624;11.698;2022-09-21T04:28:15;11.13;;;0.90;;
66927;SDS011;59882;45.624;11.698;2022-09-21T04:30:41;5.03;;;0.70;;
66927;SDS011;59882;45.624;11.698;2022-09-21T04:33:06;4.90;;;0.80;;
66927;SDS011;59882;45.624;11.698;2022-09-21T04:35:32;3.85;;;0.50;;
66927;SDS011;59882;45.624;11.698;2022-09-21T04:37:58;3.37;;;0.50;;
66927;SDS011;59882;45.624;11.698;2022-09-21T04:40:23;3.13;;;0.60;;
66927;SDS011;59882;45.624;11.698;2022-09-21T04:42:50;3.93;;;0.60;;
66927;SDS011;59882;45.624;11.698;2022-09-21T04:45:17;3.60;;;0.55;;
66927;SDS011;59882;45.624;11.698;2022-09-21T04:47:43;7.47;;;0.52;;
66927;SDS011;59882;45.624;11.698;2022-09-21T04:50:09;4.90;;;0.60;;
66927;SDS011;59882;45.624;11.698;2022-09-21T04:52:35;4.43;;;0.80;;
66927;SDS011;59882;45.624;11.698;2022-09-21T04:55:01;6.28;;;0.85;;
66927;SDS011;59882;45.624;11.698;2022-09-21T04:57:27;3.63;;;0.53;;
66927;SDS011;59882;45.624;11.698;2022-09-21T04:59:52;6.22;;;0.95;;
66927;SDS011;59882;45.624;11.698;2022-09-21T05:02:18;4.33;;;1.00;;
66927;SDS011;59882;45.624;11.698;2022-09-21T05:04:43;8.68;;;1.00;;
66927;SDS011;59882;45.624;11.698;2022-09-21T05:07:09;5.20;;;1.00;;
66927;SDS011;59882;45.624;11.698;2022-09-21T05:09:34;7.13;;;1.00;;
66927;SDS011;59882;45.624;11.698;2022-09-21T05:12:19;7.10;;;0.60;;
66927;SDS011;59882;45.624;11.698;2022-09-21T05:14:45;6.15;;;1.02;;
66927;SDS011;59882;45.624;11.698;2022-09-21T05:17:10;4.73;;;1.00;;
66927;SDS011;59882;45.624;11.698;2022-09-21T05:19:36;6.00;;;0.60;;
66927;SDS011;59882;45.624;11.698;2022-09-21T05:22:02;5.90;;;1.10;;
66927;SDS011;59882;45.624;11.698;2022-09-21T05:24:28;4.00;;;0.90;;
66927;SDS011;59882;45.624;11.698;2022-09-21T05:26:53;6.53;;;0.90;;
66927;SDS011;59882;45.624;11.698;2022-09-21T05:29:19;3.73;;;0.73;;
66927;SDS011;59882;45.624;11.698;2022-09-21T05:31:46;5.20;;;1.03;;
66927;SDS011;59882;45.624;11.698;2022-09-21T05:34:32;5.07;;;0.90;;
66927;SDS011;59882;45.624;11.698;2022-09-21T05:37:17;8.63;;;1.00;;
66927;SDS011;59882;45.624;11.698;2022-09-21T05:40:03;3.50;;;0.73;;
66927;SDS011;59882;45.624;11.698;2022-09-21T05:42:29;6.23;;;0.80;;
66927;SDS011;59882;45.624;11.698;2022-09-21T05:44:55;4.95;;;0.98;;
66927;SDS011;59882;45.624;11.698;2022-09-21T05:53:10;4.63;;;1.30;;
66927;SDS011;59882;45.624;11.698;2022-09-21T05:55:57;4.88;;;1.42;;
66927;SDS011;59882;45.624;11.698;2022-09-21T05:58:31;9.05;;;2.30;;
66927;SDS011;59882;45.624;11.698;2022-09-21T06:03:52;6.65;;;2.53;;
66927;SDS011;59882;45.624;11.698;2022-09-21T06:06:19;7.53;;;2.40;;
66927;SDS011;59882;45.624;11.698;2022-09-21T06:08:45;7.30;;;2.90;;
66927;SDS011;59882;45.624;11.698;2022-09-21T06:11:11;6.88;;;2.10;;
66927;SDS011;59882;45.624;11.698;2022-09-21T06:13:37;8.30;;;1.50;;
66927;SDS011;59882;45.624;11.698;2022-09-21T06:16:05;5.45;;;1.38;;
66927;SDS011;59882;45.624;11.698;2022-09-21T06:18:31;4.25;;;1.20;;
66927;SDS011;59882;45.624;11.698;2022-09-21T06:21:05;7.20;;;1.10;;
66927;SDS011;59882;45.624;11.698;2022-09-21T06:23:31;5.05;;;0.98;;
66927;SDS011;59882;45.624;11.698;2022-09-21T06:25:57;4.50;;;1.00;;
66927;SDS011;59882;45.624;11.698;2022-09-21T06:28:23;5.57;;;0.88;;
66927;SDS011;59882;45.624;11.698;2022-09-21T06:30:49;5.30;;;1.00;;
66927;SDS011;59882;45.624;11.698;2022-09-21T06:33:15;3.80;;;0.83;;
66927;SDS011;59882;45.624;11.698;2022-09-21T06:35:50;3.13;;;0.65;;
66927;SDS011;59882;45.624;11.698;2022-09-21T06:38:20;6.38;;;1.00;;
66927;SDS011;59882;45.624;11.698;2022-09-21T06:40:46;5.63;;;0.60;;
66927;SDS011;59882;45.624;11.698;2022-09-21T06:43:12;5.77;;;0.70;;
66927;SDS011;59882;45.624;11.698;2022-09-21T06:45:37;3.22;;;0.50;;
66927;SDS011;59882;45.624;11.698;2022-09-21T06:48:03;6.37;;;0.80;;
66927;SDS011;59882;45.624;11.698;2022-09-21T06:50:28;4.38;;;0.60;;
66927;SDS011;59882;45.624;11.698;2022-09-21T06:52:54;6.13;;;0.50;;
66927;SDS011;59882;45.624;11.698;2022-09-21T06:55:23;7.57;;;0.80;;
66927;SDS011;59882;45.624;11.698;2022-09-21T06:57:49;4.47;;;0.70;;
66927;SDS011;59882;45.624;11.698;2022-09-21T07:00:15;4.43;;;0.82;;
66927;SDS011;59882;45.624;11.698;2022-09-21T07:02:41;6.17;;;0.83;;
66927;SDS011;59882;45.624;11.698;2022-09-21T07:05:08;8.18;;;0.68;;
66927;SDS011;59882;45.624;11.698;2022-09-21T07:07:34;4.60;;;0.60;;
66927;SDS011;59882;45.624;11.698;2022-09-21T07:10:00;3.65;;;0.50;;
66927;SDS011;59882;45.624;11.698;2022-09-21T07:12:27;2.88;;;0.50;;
66927;SDS011;59882;45.624;11.698;2022-09-21T07:14:53;3.53;;;0.40;;
66927;SDS011;59882;45.624;11.698;2022-09-21T07:17:19;4.40;;;0.50;;
66927;SDS011;59882;45.624;11.698;2022-09-21T07:19:44;2.47;;;0.30;;
66927;SDS011;59882;45.624;11.698;2022-09-21T07:22:10;4.13;;;0.40;;
66927;SDS011;59882;45.624;11.698;2022-09-21T07:24:35;3.87;;;0.30;;
66927;SDS011;59882;45.624;11.698;2022-09-21T07:27:01;3.05;;;0.43;;
66927;SDS011;59882;45.624;11.698;2022-09-21T07:29:27;3.07;;;0.47;;
66927;SDS011;59882;45.624;11.698;2022-09-21T07:31:52;1.98;;;0.30;;
66927;SDS011;59882;45.624;11.698;2022-09-21T07:34:18;4.90;;;0.37;;
66927;SDS011;59882;45.624;11.698;2022-09-21T07:36:44;5.43;;;0.30;;
66927;SDS011;59882;45.624;11.698;2022-09-21T07:39:09;3.43;;;0.40;;
66927;SDS011;59882;45.624;11.698;2022-09-21T07:41:35;2.88;;;0.47;;
66927;SDS011;59882;45.624;11.698;2022-09-21T07:44:01;3.27;;;0.50;;
66927;SDS011;59882;45.624;11.698;2022-09-21T07:46:27;3.75;;;0.40;;
66927;SDS011;59882;45.624;11.698;2022-09-21T07:48:53;4.57;;;0.40;;
66927;SDS011;59882;45.624;11.698;2022-09-21T07:51:20;4.93;;;0.67;;
66927;SDS011;59882;45.624;11.698;2022-09-21T07:53:52;3.47;;;0.65;;
66927;SDS011;59882;45.624;11.698;2022-09-21T07:56:20;3.83;;;0.32;;
66927;SDS011;59882;45.624;11.698;2022-09-21T07:58:46;3.03;;;0.20;;
66927;SDS011;59882;45.624;11.698;2022-09-21T08:01:31;6.97;;;0.40;;
66927;SDS011;59882;45.624;11.698;2022-09-21T08:03:59;1.83;;;0.20;;
66927;SDS011;59882;45.624;11.698;2022-09-21T08:06:25;2.00;;;0.15;;
66927;SDS011;59882;45.624;11.698;2022-09-21T08:08:53;2.40;;;0.30;;
66927;SDS011;59882;45.624;11.698;2022-09-21T08:11:19;2.73;;;0.30;;
66927;SDS011;59882;45.624;11.698;2022-09-21T08:13:46;2.13;;;0.20;;
66927;SDS011;59882;45.624;11.698;2022-09-21T08:16:12;3.78;;;0.30;;
66927;SDS011;59882;45.624;11.698;2022-09-21T08:18:39;2.30;;;0.30;;
66927;SDS011;59882;45.624;11.698;2022-09-21T08:21:06;2.90;;;0.47;;
66927;SDS011;59882;45.624;11.698;2022-09-21T08:23:32;2.42;;;0.20;;
66927;SDS011;59882;45.624;11.698;2022-09-21T08:25:58;2.60;;;0.20;;
66927;SDS011;59882;45.624;11.698;2022-09-21T08:28:25;2.15;;;0.20;;
66927;SDS011;59882;45.624;11.698;2022-09-21T08:30:52;2.10;;;0.20;;
66927;SDS011;59882;45.624;11.698;2022-09-21T08:33:17;1.67;;;0.20;;
66927;SDS011;59882;45.624;11.698;2022-09-21T08:35:50;1.97;;;0.23;;
66927;SDS011;59882;45.624;11.698;2022-09-21T08:38:16;3.50;;;0.40;;
66927;SDS011;59882;45.624;11.698;2022-09-21T08:40:42;1.80;;;0.20;;
66927;SDS011;59882;45.624;11.698;2022-09-21T08:43:09;2.80;;;0.20;;
66927;SDS011;59882;45.624;11.698;2022-09-21T08:45:42;1.67;;;0.20;;
66927;SDS011;59882;45.624;11.698;2022-09-21T08:48:31;3.88;;;0.35;;
66927;SDS011;59882;45.624;11.698;2022-09-21T08:51:00;4.55;;;0.30;;
66927;SDS011;59882;45.624;11.698;2022-09-21T08:53:40;4.65;;;0.40;;
66927;SDS011;59882;45.624;11.698;2022-09-21T08:56:12;4.13;;;0.30;;
66927;SDS011;59882;45.624;11.698;2022-09-21T08:58:39;2.25;;;0.30;;
66927;SDS011;59882;45.624;11.698;2022-09-21T09:04:03;1.98;;;0.20;;
66927;SDS011;59882;45.624;11.698;2022-09-21T09:09:25;2.33;;;0.30;;
66927;SDS011;59882;45.624;11.698;2022-09-21T09:14:44;2.35;;;0.20;;
66927;SDS011;59882;45.624;11.698;2022-09-21T09:20:10;2.10;;;0.30;;
66927;SDS011;59882;45.624;11.698;2022-09-21T09:23:01;4.30;;;0.40;;
66927;SDS011;59882;45.624;11.698;2022-09-21T09:25:31;2.08;;;0.20;;
66927;SDS011;59882;45.624;11.698;2022-09-21T09:28:15;3.80;;;0.20;;
66927;SDS011;59882;45.624;11.698;2022-09-21T09:30:44;4.03;;;0.20;;
66927;SDS011;59882;45.624;11.698;2022-09-21T09:35:49;3.78;;;0.28;;
66927;SDS011;59882;45.624;11.698;2022-09-21T09:46:31;2.83;;;0.40;;
66927;SDS011;59882;45.624;11.698;2022-09-21T09:49:05;2.20;;;0.25;;
66927;SDS011;59882;45.624;11.698;2022-09-21T09:51:52;5.00;;;0.40;;
66927;SDS011;59882;45.624;11.698;2022-09-21T09:54:18;4.57;;;0.40;;
66927;SDS011;59882;45.624;11.698;2022-09-21T09:56:48;3.27;;;0.30;;
66927;SDS011;59882;45.624;11.698;2022-09-21T09:59:25;2.83;;;0.22;;
66927;SDS011;59882;45.624;11.698;2022-09-21T10:02:00;2.83;;;0.30;;
66927;SDS011;59882;45.624;11.698;2022-09-21T10:04:30;2.40;;;0.20;;
66927;SDS011;59882;45.624;11.698;2022-09-21T10:06:58;2.92;;;0.20;;
66927;SDS011;59882;45.624;11.698;2022-09-21T10:11:52;2.03;;;0.20;;
66927;SDS011;59882;45.624;11.698;2022-09-21T10:14:23;3.08;;;0.30;;
66927;SDS011;59882;45.624;11.698;2022-09-21T10:16:51;2.23;;;0.20;;
66927;SDS011;59882;45.624;11.698;2022-09-21T10:19:20;2.42;;;0.20;;
66927;SDS011;59882;45.624;11.698;2022-09-21T10:21:55;2.97;;;0.60;;
66927;SDS011;59882;45.624;11.698;2022-09-21T10:24:23;2.88;;;0.30;;
66927;SDS011;59882;45.624;11.698;2022-09-21T10:27:18;2.40;;;0.30;;
66927;SDS011;59882;45.624;11.698;2022-09-21T10:29:48;1.43;;;0.20;;
66927;SDS011;59882;45.624;11.698;2022-09-21T10:37:29;2.95;;;0.40;;
66927;SDS011;59882;45.624;11.698;2022-09-21T10:39:58;2.73;;;0.30;;
66927;SDS011;59882;45.624;11.698;2022-09-21T10:42:25;1.95;;;0.30;;
66927;SDS011;59882;45.624;11.698;2022-09-21T10:45:06;1.92;;;0.30;;
66927;SDS011;59882;45.624;11.698;2022-09-21T10:55:35;2.70;;;0.32;;
66927;SDS011;59882;45.624;11.698;2022-09-21T10:58:07;3.08;;;0.30;;
66927;SDS011;59882;45.624;11.698;2022-09-21T11:00:42;2.87;;;0.20;;
66927;SDS011;59882;45.624;11.698;2022-09-21T11:05:52;2.22;;;0.40;;
66927;SDS011;59882;45.624;11.698;2022-09-21T11:08:22;2.25;;;0.40;;
66927;SDS011;59882;45.624;11.698;2022-09-21T11:11:08;1.67;;;0.30;;
66927;SDS011;59882;45.624;11.698;2022-09-21T11:13:58;3.73;;;0.50;;
66927;SDS011;59882;45.624;11.698;2022-09-21T11:28:00;1.60;;;0.20;;
66927;SDS011;59882;45.624;11.698;2022-09-21T11:44:54;5.47;;;1.75;;
66927;SDS011;59882;45.624;11.698;2022-09-21T11:47:40;12.30;;;5.22;;
66927;SDS011;59882;45.624;11.698;2022-09-21T11:53:02;3.45;;;0.47;;
66927;SDS011;59882;45.624;11.698;2022-09-21T11:58:32;4.60;;;0.38;;
66927;SDS011;59882;45.624;11.698;2022-09-21T12:01:17;3.40;;;0.30;;
66927;SDS011;59882;45.624;11.698;2022-09-21T12:13:06;1.95;;;0.20;;
66927;SDS011;59882;45.624;11.698;2022-09-21T12:15:39;2.28;;;0.30;;
66927;SDS011;59882;45.624;11.698;2022-09-21T12:18:11;1.58;;;0.20;;
66927;SDS011;59882;45.624;11.698;2022-09-21T12:23:16;2.63;;;0.40;;
66927;SDS011;59882;45.624;11.698;2022-09-21T12:25:52;1.95;;;0.50;;
66927;SDS011;59882;45.624;11.698;2022-09-21T12:28:23;3.17;;;0.43;;
66927;SDS011;59882;45.624;11.698;2022-09-21T12:30:56;2.85;;;0.73;;
66927;SDS011;59882;45.624;11.698;2022-09-21T12:33:36;3.72;;;0.85;;
66927;SDS011;59882;45.624;11.698;2022-09-21T12:36:12;2.77;;;0.53;;
66927;SDS011;59882;45.624;11.698;2022-09-21T12:39:22;3.13;;;0.70;;
66927;SDS011;59882;45.624;11.698;2022-09-21T12:47:04;4.07;;;1.50;;
66927;SDS011;59882;45.624;11.698;2022-09-21T12:49:37;5.03;;;1.90;;
66927;SDS011;59882;45.624;11.698;2022-09-21T12:52:07;3.58;;;0.85;;
66927;SDS011;59882;45.624;11.698;2022-09-21T12:54:39;2.70;;;0.70;;
66927;SDS011;59882;45.624;11.698;2022-09-21T13:00:20;4.22;;;1.10;;
66927;SDS011;59882;45.624;11.698;2022-09-21T13:03:02;4.67;;;1.00;;
66927;SDS011;59882;45.624;11.698;2022-09-21T13:05:37;5.43;;;1.10;;
66927;SDS011;59882;45.624;11.698;2022-09-21T13:10:40;3.60;;;0.47;;
66927;SDS011;59882;45.624;11.698;2022-09-21T13:15:48;3.90;;;0.40;;
66927;SDS011;59882;45.624;11.698;2022-09-21T13:18:48;3.10;;;0.77;;
66927;SDS011;59882;45.624;11.698;2022-09-21T13:21:14;5.72;;;1.20;;
66927;SDS011;59882;45.624;11.698;2022-09-21T13:32:02;3.28;;;0.70;;
66927;SDS011;59882;45.624;11.698;2022-09-21T13:34:38;3.60;;;0.63;;
66927;SDS011;59882;45.624;11.698;2022-09-21T13:39:50;2.03;;;0.73;;
66927;SDS011;59882;45.624;11.698;2022-09-21T13:44:54;2.97;;;1.05;;
66927;SDS011;59882;45.624;11.698;2022-09-21T13:47:30;2.95;;;0.93;;
66927;SDS011;59882;45.624;11.698;2022-09-21T13:50:10;3.90;;;1.42;;
66927;SDS011;59882;45.624;11.698;2022-09-21T13:53:16;2.85;;;1.33;;
66927;SDS011;59882;45.624;11.698;2022-09-21T13:55:50;3.17;;;1.30;;
66927;SDS011;59882;45.624;11.698;2022-09-21T14:00:56;3.85;;;1.27;;
66927;SDS011;59882;45.624;11.698;2022-09-21T14:03:34;4.13;;;1.48;;
66927;SDS011;59882;45.624;11.698;2022-09-21T14:08:32;3.15;;;1.38;;
66927;SDS011;59882;45.624;11.698;2022-09-21T14:11:35;3.55;;;1.50;;
66927;SDS011;59882;45.624;11.698;2022-09-21T14:19:01;3.25;;;1.50;;
66927;SDS011;59882;45.624;11.698;2022-09-21T14:21:37;2.90;;;1.15;;
66927;SDS011;59882;45.624;11.698;2022-09-21T14:26:35;4.00;;;1.35;;
66927;SDS011;59882;45.624;11.698;2022-09-21T14:31:45;3.80;;;1.25;;
66927;SDS011;59882;45.624;11.698;2022-09-21T14:34:19;3.03;;;1.40;;
66927;SDS011;59882;45.624;11.698;2022-09-21T14:36:49;3.97;;;1.40;;
66927;SDS011;59882;45.624;11.698;2022-09-21T14:39:23;3.33;;;1.35;;
66927;SDS011;59882;45.624;11.698;2022-09-21T14:42:00;3.17;;;1.13;;
66927;SDS011;59882;45.624;11.698;2022-09-21T14:44:44;6.78;;;1.20;;
66927;SDS011;59882;45.624;11.698;2022-09-21T14:52:58;4.50;;;1.33;;
66927;SDS011;59882;45.624;11.698;2022-09-21T15:01:37;3.55;;;1.38;;
66927;SDS011;59882;45.624;11.698;2022-09-21T15:12:57;2.47;;;1.02;;
66927;SDS011;59882;45.624;11.698;2022-09-21T15:18:16;4.22;;;1.30;;
66927;SDS011;59882;45.624;11.698;2022-09-21T15:20:49;3.53;;;1.30;;
66927;SDS011;59882;45.624;11.698;2022-09-21T15:23:38;3.03;;;1.05;;
66927;SDS011;59882;45.624;11.698;2022-09-21T15:26:14;4.28;;;1.67;;
66927;SDS011;59882;45.624;11.698;2022-09-21T15:28:45;2.70;;;1.20;;
66927;SDS011;59882;45.624;11.698;2022-09-21T15:31:14;4.88;;;1.10;;
66927;SDS011;59882;45.624;11.698;2022-09-21T15:33:41;3.47;;;0.93;;
66927;SDS011;59882;45.624;11.698;2022-09-21T15:36:10;3.08;;;1.02;;
66927;SDS011;59882;45.624;11.698;2022-09-21T15:38:38;2.78;;;1.10;;
66927;SDS011;59882;45.624;11.698;2022-09-21T15:41:04;2.53;;;0.90;;
66927;SDS011;59882;45.624;11.698;2022-09-21T15:43:33;4.88;;;1.00;;
66927;SDS011;59882;45.624;11.698;2022-09-21T15:46:05;3.83;;;1.20;;
66927;SDS011;59882;45.624;11.698;2022-09-21T15:48:38;3.25;;;0.80;;
66927;SDS011;59882;45.624;11.698;2022-09-21T15:51:13;4.40;;;0.75;;
66927;SDS011;59882;45.624;11.698;2022-09-21T15:53:53;2.33;;;0.73;;
66927;SDS011;59882;45.624;11.698;2022-09-21T15:56:29;2.42;;;0.82;;
66927;SDS011;59882;45.624;11.698;2022-09-21T15:58:58;2.87;;;0.83;;
66927;SDS011;59882;45.624;11.698;2022-09-21T16:01:34;3.80;;;0.95;;
66927;SDS011;59882;45.624;11.698;2022-09-21T16:04:13;2.75;;;0.90;;
66927;SDS011;59882;45.624;11.698;2022-09-21T16:06:56;4.72;;;0.82;;
66927;SDS011;59882;45.624;11.698;2022-09-21T16:09:39;2.60;;;0.70;;
66927;SDS011;59882;45.624;11.698;2022-09-21T16:14:49;3.33;;;0.70;;
66927;SDS011;59882;45.624;11.698;2022-09-21T16:17:22;4.55;;;0.82;;
66927;SDS011;59882;45.624;11.698;2022-09-21T16:25:01;5.53;;;0.77;;
66927;SDS011;59882;45.624;11.698;2022-09-21T16:27:36;4.18;;;0.90;;
66927;SDS011;59882;45.624;11.698;2022-09-21T16:30:36;3.33;;;0.88;;
66927;SDS011;59882;45.624;11.698;2022-09-21T16:33:31;2.58;;;0.65;;
66927;SDS011;59882;45.624;11.698;2022-09-21T16:38:49;1.73;;;0.30;;
66927;SDS011;59882;45.624;11.698;2022-09-21T16:41:18;2.83;;;0.50;;
66927;SDS011;59882;45.624;11.698;2022-09-21T16:43:45;3.58;;;0.40;;
66927;SDS011;59882;45.624;11.698;2022-09-21T16:46:11;2.57;;;0.40;;
66927;SDS011;59882;45.624;11.698;2022-09-21T16:48:40;2.65;;;0.40;;
66927;SDS011;59882;45.624;11.698;2022-09-21T16:51:12;4.43;;;0.43;;
66927;SDS011;59882;45.624;11.698;2022-09-21T16:53:39;4.97;;;0.40;;
66927;SDS011;59882;45.624;11.698;2022-09-21T16:56:08;3.33;;;0.40;;
66927;SDS011;59882;45.624;11.698;2022-09-21T16:58:38;3.17;;;0.40;;
66927;SDS011;59882;45.624;11.698;2022-09-21T17:01:06;2.28;;;0.40;;
66927;SDS011;59882;45.624;11.698;2022-09-21T17:03:34;5.45;;;0.63;;
66927;SDS011;59882;45.624;11.698;2022-09-21T17:05:59;3.80;;;0.50;;
66927;SDS011;59882;45.624;11.698;2022-09-21T17:08:26;5.13;;;0.75;;
66927;SDS011;59882;45.624;11.698;2022-09-21T17:10:54;3.65;;;0.50;;
66927;SDS011;59882;45.624;11.698;2022-09-21T17:13:19;4.00;;;0.47;;
66927;SDS011;59882;45.624;11.698;2022-09-21T17:15:45;5.22;;;0.60;;
66927;SDS011;59882;45.624;11.698;2022-09-21T17:18:12;6.22;;;0.88;;
66927;SDS011;59882;45.624;11.698;2022-09-21T17:20:39;4.23;;;0.90;;
66927;SDS011;59882;45.624;11.698;2022-09-21T17:23:06;6.50;;;0.60;;
66927;SDS011;59882;45.624;11.698;2022-09-21T17:25:33;5.45;;;0.70;;
66927;SDS011;59882;45.624;11.698;2022-09-21T17:28:00;6.13;;;0.70;;
66927;SDS011;59882;45.624;11.698;2022-09-21T17:30:27;4.28;;;0.90;;
66927;SDS011;59882;45.624;11.698;2022-09-21T17:32:53;5.73;;;0.60;;
66927;SDS011;59882;45.624;11.698;2022-09-21T17:38:00;5.18;;;0.85;;
66927;SDS011;59882;45.624;11.698;2022-09-21T17:40:26;4.43;;;0.77;;
66927;SDS011;59882;45.624;11.698;2022-09-21T17:48:58;5.35;;;0.60;;
66927;SDS011;59882;45.624;11.698;2022-09-21T17:51:24;6.07;;;0.70;;
66927;SDS011;59882;45.624;11.698;2022-09-21T17:54:08;5.95;;;0.73;;
66927;SDS011;59882;45.624;11.698;2022-09-21T17:59:20;4.13;;;1.00;;
66927;SDS011;59882;45.624;11.698;2022-09-21T18:01:58;5.70;;;0.50;;
66927;SDS011;59882;45.624;11.698;2022-09-21T18:04:25;3.95;;;0.60;;
66927;SDS011;59882;45.624;11.698;2022-09-21T18:06:52;3.90;;;0.70;;
66927;SDS011;59882;45.624;11.698;2022-09-21T18:09:18;5.75;;;0.63;;
66927;SDS011;59882;45.624;11.698;2022-09-21T18:28:12;5.13;;;0.82;;
66927;SDS011;59882;45.624;11.698;2022-09-21T18:36:25;6.97;;;0.98;;
66927;SDS011;59882;45.624;11.698;2022-09-21T18:41:31;8.40;;;1.05;;
66927;SDS011;59882;45.624;11.698;2022-09-21T18:47:01;5.03;;;0.98;;
66927;SDS011;59882;45.624;11.698;2022-09-21T18:54:52;65.20;;;34.25;;
66927;SDS011;59882;45.624;11.698;2022-09-21T18:57:18;43.72;;;24.52;;
66927;SDS011;59882;45.624;11.698;2022-09-21T18:59:43;30.53;;;19.23;;